createdAt,value
2023-04-19T00:01:00.969Z,8.70
2023-04-19T00:03:28.143Z,8.70
2023-04-19T00:05:55.032Z,8.70
2023-04-19T00:08:21.762Z,8.70
2023-04-19T00:10:49.903Z,8.70
2023-04-19T00:13:16.651Z,8.80
2023-04-19T00:15:43.420Z,8.80
2023-04-19T00:18:10.231Z,8.80
2023-04-19T00:20:38.210Z,8.80
2023-04-19T00:23:04.998Z,8.80
2023-04-19T00:25:31.880Z,8.80
2023-04-19T00:28:00.024Z,8.80
2023-04-19T00:30:26.778Z,8.80
2023-04-19T00:32:53.574Z,8.80
2023-04-19T00:35:20.584Z,8.80
2023-04-19T00:37:47.398Z,8.80
2023-04-19T00:40:14.275Z,8.80
2023-04-19T00:42:41.311Z,8.80
2023-04-19T00:45:10.439Z,8.70
2023-04-19T00:47:38.131Z,8.70
2023-04-19T00:50:05.899Z,8.70
2023-04-19T00:52:33.351Z,8.70
2023-04-19T00:55:01.393Z,8.70
2023-04-19T00:57:29.460Z,8.70
2023-04-19T00:59:56.974Z,8.70
2023-04-19T01:02:25.238Z,8.70
2023-04-19T01:04:52.196Z,8.70
2023-04-19T01:07:19.737Z,8.70
2023-04-19T01:09:47.043Z,8.70
2023-04-19T01:12:13.920Z,8.70
2023-04-19T01:14:40.745Z,8.60
2023-04-19T01:17:07.745Z,8.60
2023-04-19T01:19:36.248Z,8.60
2023-04-19T01:22:03.179Z,8.60
2023-04-19T01:24:31.418Z,8.70
2023-04-19T01:26:58.379Z,8.70
2023-04-19T01:29:25.182Z,8.70
2023-04-19T01:31:51.922Z,8.70
2023-04-19T01:34:18.760Z,8.70
2023-04-19T01:36:45.567Z,8.70
2023-04-19T01:39:12.473Z,8.70
2023-04-19T01:41:40.587Z,8.70
2023-04-19T01:44:07.391Z,8.70
2023-04-19T01:46:34.158Z,8.70
2023-04-19T01:49:00.954Z,8.70
2023-04-19T01:51:27.877Z,8.70
2023-04-19T01:53:54.666Z,8.70
2023-04-19T01:56:21.582Z,8.70
2023-04-19T01:58:49.731Z,8.70
2023-04-19T02:01:16.558Z,8.70
2023-04-19T02:03:43.617Z,8.70
2023-04-19T02:06:11.424Z,8.70
2023-04-19T02:08:38.264Z,8.70
2023-04-19T02:11:06.933Z,8.70
2023-04-19T02:13:33.698Z,8.70
2023-04-19T02:16:01.879Z,8.70
2023-04-19T02:18:28.789Z,8.70
2023-04-19T02:20:55.638Z,8.60
2023-04-19T02:23:22.475Z,8.70
2023-04-19T02:25:49.253Z,8.70
2023-04-19T02:28:16.146Z,8.70
2023-04-19T02:30:43.060Z,8.70
2023-04-19T02:33:11.231Z,8.60
2023-04-19T02:35:38.088Z,8.70
2023-04-19T02:38:04.978Z,8.60
2023-04-19T02:40:32.007Z,8.70
2023-04-19T02:42:58.872Z,8.70
2023-04-19T02:45:25.753Z,8.60
2023-04-19T02:47:52.530Z,8.70
2023-04-19T02:50:20.845Z,8.70
2023-04-19T02:52:47.642Z,8.60
2023-04-19T02:55:14.417Z,8.60
2023-04-19T02:57:41.191Z,8.60
2023-04-19T03:00:09.087Z,8.60
2023-04-19T03:02:35.928Z,8.60
2023-04-19T03:05:02.819Z,8.60
2023-04-19T03:07:30.933Z,8.60
2023-04-19T03:09:57.721Z,8.60
2023-04-19T03:12:24.486Z,8.60
2023-04-19T03:14:51.257Z,8.50
2023-04-19T03:17:17.997Z,8.50
2023-04-19T03:19:44.739Z,8.50
2023-04-19T03:22:11.442Z,8.50
2023-04-19T03:24:39.610Z,8.60
2023-04-19T03:27:06.325Z,8.50
2023-04-19T03:29:33.061Z,8.50
2023-04-19T03:31:59.789Z,8.40
2023-04-19T03:34:26.503Z,8.40
2023-04-19T03:36:53.211Z,8.30
2023-04-19T03:39:20.042Z,8.30
2023-04-19T03:41:48.106Z,8.30
2023-04-19T03:44:14.939Z,8.40
2023-04-19T03:46:42.012Z,8.40
2023-04-19T03:49:08.812Z,8.40
2023-04-19T03:51:35.715Z,8.40
2023-04-19T03:54:02.427Z,8.40
2023-04-19T03:56:29.238Z,8.40
2023-04-19T03:58:57.368Z,8.40
2023-04-19T04:01:24.403Z,8.40
2023-04-19T04:03:51.322Z,8.30
2023-04-19T04:06:18.297Z,8.30
2023-04-19T04:08:45.009Z,8.20
2023-04-19T04:11:11.888Z,8.20
2023-04-19T04:13:38.649Z,8.20
2023-04-19T04:16:06.919Z,8.20
2023-04-19T04:18:33.708Z,8.10
2023-04-19T04:21:00.486Z,8.10
2023-04-19T04:23:27.348Z,8.10
2023-04-19T04:25:58.069Z,8.10
2023-04-19T04:28:24.827Z,8.10
2023-04-19T04:30:51.575Z,8.20
2023-04-19T04:33:19.704Z,8.20
2023-04-19T04:35:46.428Z,8.20
2023-04-19T04:38:23.651Z,8.10
2023-04-19T04:40:52.144Z,8.10
2023-04-19T04:43:18.958Z,8.10
2023-04-19T04:45:45.723Z,8.10
2023-04-19T04:48:12.521Z,8.00
2023-04-19T04:50:40.626Z,8.00
2023-04-19T04:53:07.551Z,8.10
2023-04-19T04:55:34.490Z,8.10
2023-04-19T04:58:01.307Z,8.10
2023-04-19T05:00:28.108Z,8.10
2023-04-19T05:02:54.927Z,8.10
2023-04-19T05:05:21.910Z,8.00
2023-04-19T05:07:50.027Z,8.00
2023-04-19T05:10:16.869Z,8.00
2023-04-19T05:12:43.630Z,8.00
2023-04-19T05:15:10.505Z,8.00
2023-04-19T05:17:37.283Z,8.10
2023-04-19T05:20:04.758Z,8.10
2023-04-19T05:22:31.576Z,8.10
2023-04-19T05:24:59.759Z,8.20
2023-04-19T05:27:26.557Z,8.20
2023-04-19T05:29:53.376Z,8.20
2023-04-19T05:32:20.270Z,8.20
2023-04-19T05:34:47.022Z,8.20
2023-04-19T05:37:13.774Z,8.30
2023-04-19T05:39:42.861Z,8.30
2023-04-19T05:42:12.250Z,8.40
2023-04-19T05:44:38.998Z,8.40
2023-04-19T05:47:05.853Z,8.40
2023-04-19T05:49:32.640Z,8.40
2023-04-19T05:51:59.465Z,8.50
2023-04-19T05:54:26.256Z,8.50
2023-04-19T05:56:53.070Z,8.50
2023-04-19T05:59:21.233Z,8.50
2023-04-19T06:01:48.041Z,8.60
2023-04-19T06:04:15.038Z,8.50
2023-04-19T06:06:42.170Z,8.50
2023-04-19T06:09:08.951Z,8.60
2023-04-19T06:11:43.096Z,8.70
2023-04-19T06:14:14.620Z,8.70
2023-04-19T06:16:43.101Z,8.70
2023-04-19T06:19:09.808Z,8.70
2023-04-19T06:21:36.576Z,8.70
2023-04-19T06:24:03.557Z,8.60
2023-04-19T06:26:30.366Z,8.60
2023-04-19T06:28:57.214Z,8.60
2023-04-19T06:31:24.397Z,8.60
2023-04-19T06:33:52.661Z,8.60
2023-04-19T06:36:19.922Z,8.60
2023-04-19T06:38:46.665Z,8.60
2023-04-19T06:41:13.507Z,8.60
2023-04-19T06:43:40.289Z,8.60
2023-04-19T06:46:07.074Z,8.60
2023-04-19T06:48:34.210Z,8.60
2023-04-19T06:51:02.476Z,8.60
2023-04-19T06:53:29.223Z,8.70
2023-04-19T06:55:59.006Z,8.80
2023-04-19T06:58:25.955Z,8.80
2023-04-19T07:00:52.704Z,8.90
2023-04-19T07:03:19.533Z,8.90
2023-04-19T07:05:46.530Z,8.90
2023-04-19T07:08:14.644Z,9.00
2023-04-19T07:10:41.536Z,9.00
2023-04-19T07:13:08.277Z,9.10
2023-04-19T07:15:35.306Z,9.20
2023-04-19T07:18:02.232Z,9.20
2023-04-19T07:20:29.327Z,9.30
2023-04-19T07:22:56.064Z,9.30
2023-04-19T07:25:24.337Z,9.30
2023-04-19T07:27:52.892Z,9.30
2023-04-19T07:30:19.929Z,9.20
2023-04-19T07:32:46.834Z,9.20
2023-04-19T07:35:13.700Z,9.20
2023-04-19T07:37:40.467Z,9.20
2023-04-19T07:40:08.321Z,9.30
2023-04-19T07:42:36.473Z,9.40
2023-04-19T07:45:03.600Z,9.50
2023-04-19T07:47:30.470Z,9.60
2023-04-19T07:49:57.266Z,9.90
2023-04-19T07:52:24.069Z,10.10
2023-04-19T07:54:50.856Z,10.40
2023-04-19T07:57:17.583Z,10.60
2023-04-19T07:59:45.782Z,10.70
2023-04-19T08:02:12.581Z,11.00
2023-04-19T08:04:40.027Z,11.40
2023-04-19T08:07:07.035Z,11.70
2023-04-19T08:09:34.290Z,12.00
2023-04-19T08:12:01.150Z,12.40
2023-04-19T08:14:37.285Z,12.70
2023-04-19T08:17:21.923Z,13.10
2023-04-19T08:19:52.843Z,13.40
2023-04-19T08:22:20.277Z,13.30
2023-04-19T08:24:49.095Z,13.30
2023-04-19T08:27:15.812Z,13.50
2023-04-19T08:29:42.615Z,13.50
2023-04-19T08:32:12.079Z,13.70
2023-04-19T08:34:40.026Z,13.90
2023-04-19T08:37:07.351Z,13.90
2023-04-19T08:39:35.014Z,14.00
2023-04-19T08:42:10.480Z,14.10
2023-04-19T08:44:59.689Z,14.00
2023-04-19T08:47:37.217Z,14.20
2023-04-19T08:50:17.359Z,14.30
2023-04-19T08:52:56.025Z,14.10
2023-04-19T08:55:28.679Z,13.90
2023-04-19T08:57:57.141Z,13.60
2023-04-19T09:00:23.989Z,13.60
2023-04-19T09:02:54.615Z,13.40
2023-04-19T09:05:22.120Z,13.00
2023-04-19T09:07:49.360Z,12.70
2023-04-19T09:10:18.140Z,12.20
2023-04-19T09:13:00.622Z,11.70
2023-04-19T09:15:36.817Z,11.50
2023-04-19T09:18:06.921Z,11.50
2023-04-19T09:20:37.320Z,11.40
2023-04-19T09:23:06.302Z,11.40
2023-04-19T09:25:49.250Z,11.40
2023-04-19T09:28:19.662Z,11.50
2023-04-19T09:30:55.139Z,11.30
2023-04-19T09:33:36.005Z,11.20
2023-04-19T09:36:03.253Z,11.20
2023-04-19T09:38:30.032Z,11.40
2023-04-19T09:41:08.882Z,11.70
2023-04-19T09:44:01.495Z,12.20
2023-04-19T09:46:33.943Z,12.40
2023-04-19T09:49:25.163Z,12.50
2023-04-19T09:51:57.652Z,13.00
2023-04-19T09:54:25.704Z,13.70
2023-04-19T09:56:54.072Z,14.30
2023-04-19T09:59:23.587Z,15.00
2023-04-19T10:01:54.505Z,15.70
2023-04-19T10:04:33.487Z,16.10
2023-04-19T10:07:29.036Z,16.40
2023-04-19T10:09:59.907Z,16.90
2023-04-19T10:15:03.684Z,15.60
2023-04-19T10:17:30.742Z,15.70
2023-04-19T10:20:06.715Z,15.90
2023-04-19T10:22:34.884Z,16.00
2023-04-19T10:25:12.155Z,15.60
2023-04-19T10:27:39.371Z,15.70
2023-04-19T10:30:16.121Z,15.50
2023-04-19T10:32:44.759Z,15.30
2023-04-19T10:35:19.317Z,15.40
2023-04-19T10:38:06.262Z,15.90
2023-04-19T10:40:58.798Z,16.30
2023-04-19T10:43:26.988Z,16.60
2023-04-19T10:45:53.937Z,16.50
2023-04-19T10:48:54.391Z,16.20
2023-04-19T10:51:26.127Z,15.60
2023-04-19T10:53:55.312Z,14.70
2023-04-19T10:56:38.410Z,13.80
2023-04-19T10:59:26.390Z,13.20
2023-04-19T11:01:55.758Z,12.50
2023-04-19T11:04:44.502Z,12.20
2023-04-19T11:07:12.723Z,11.90
2023-04-19T11:09:44.725Z,11.80
2023-04-19T11:12:13.635Z,11.50
2023-04-19T11:14:42.428Z,11.40
2023-04-19T11:17:15.803Z,11.20
2023-04-19T11:19:43.852Z,11.10
2023-04-19T11:22:12.216Z,10.90
2023-04-19T11:24:44.697Z,10.90
2023-04-19T11:27:11.618Z,11.00
2023-04-19T11:29:38.532Z,10.90
2023-04-19T11:32:05.743Z,10.90
2023-04-19T11:34:36.259Z,10.80
2023-04-19T11:37:03.062Z,10.90
2023-04-19T11:39:31.395Z,11.00
2023-04-19T11:41:58.200Z,11.20
2023-04-19T11:44:25.067Z,11.30
2023-04-19T11:46:59.744Z,11.40
2023-04-19T11:49:27.876Z,11.50
2023-04-19T11:51:58.919Z,11.60
2023-04-19T11:54:26.437Z,11.60
2023-04-19T11:57:02.373Z,11.50
2023-04-19T11:59:29.356Z,11.40
2023-04-19T12:01:56.482Z,11.10
2023-04-19T12:04:24.084Z,10.90
2023-04-19T12:06:57.994Z,10.80
2023-04-19T12:09:25.869Z,10.70
2023-04-19T12:11:53.875Z,10.60
2023-04-19T12:14:23.891Z,10.60
2023-04-19T12:17:07.341Z,10.50
2023-04-19T12:19:42.016Z,10.50
2023-04-19T12:22:10.582Z,10.50
2023-04-19T12:24:38.134Z,10.50
2023-04-19T12:27:05.025Z,10.60
2023-04-19T12:29:35.010Z,10.60
2023-04-19T12:32:02.276Z,10.70
2023-04-19T12:34:29.608Z,10.80
2023-04-19T12:36:56.845Z,10.90
2023-04-19T12:39:24.070Z,11.00
2023-04-19T12:41:50.962Z,10.90
2023-04-19T12:44:17.821Z,10.80
2023-04-19T12:46:46.002Z,10.70
2023-04-19T12:49:13.008Z,10.70
2023-04-19T12:51:40.055Z,10.50
2023-04-19T12:54:06.873Z,10.30
2023-04-19T12:56:34.115Z,10.20
2023-04-19T12:59:00.925Z,10.10
2023-04-19T13:01:27.868Z,10.20
2023-04-19T13:03:59.098Z,10.30
2023-04-19T13:06:26.544Z,10.50
2023-04-19T13:08:54.878Z,10.70
2023-04-19T13:11:22.091Z,10.60
2023-04-19T13:13:50.760Z,10.50
2023-04-19T13:16:17.634Z,10.40
2023-04-19T13:18:44.678Z,10.30
2023-04-19T13:21:12.915Z,10.20
2023-04-19T13:23:40.197Z,10.20
2023-04-19T13:26:07.095Z,10.20
2023-04-19T13:28:34.422Z,10.30
2023-04-19T13:31:02.167Z,10.30
2023-04-19T13:33:33.759Z,10.40
2023-04-19T13:36:01.776Z,10.50
2023-04-19T13:38:30.281Z,10.50
2023-04-19T13:40:57.183Z,10.60
2023-04-19T13:43:23.989Z,10.60
2023-04-19T13:45:50.801Z,10.60
2023-04-19T13:48:21.898Z,10.60
2023-04-19T13:50:51.017Z,10.50
2023-04-19T13:53:18.099Z,10.40
2023-04-19T13:55:46.396Z,10.30
2023-04-19T13:58:13.314Z,10.20
2023-04-19T14:00:40.555Z,10.20
2023-04-19T14:03:07.683Z,10.20
2023-04-19T14:05:34.640Z,10.20
2023-04-19T14:08:01.400Z,10.10
2023-04-19T14:10:29.198Z,10.10
2023-04-19T14:12:57.493Z,10.00
2023-04-19T14:15:24.311Z,9.90
2023-04-19T14:17:51.227Z,9.70
2023-04-19T14:20:18.464Z,9.50
2023-04-19T14:22:46.043Z,9.40
2023-04-19T14:25:13.014Z,9.30
2023-04-19T14:27:39.787Z,9.10
2023-04-19T14:30:09.468Z,8.90
2023-04-19T14:32:36.628Z,8.80
2023-04-19T14:35:03.917Z,8.80
2023-04-19T14:37:30.882Z,8.80
2023-04-19T14:39:57.756Z,8.90
2023-04-19T14:42:24.572Z,8.90
2023-04-19T14:44:52.163Z,8.90
2023-04-19T14:47:21.115Z,9.00
2023-04-19T14:49:48.093Z,9.10
2023-04-19T14:52:15.200Z,9.10
2023-04-19T14:54:42.026Z,9.20
2023-04-19T14:57:09.549Z,9.20
2023-04-19T14:59:36.401Z,9.10
2023-04-19T15:02:03.297Z,9.00
2023-04-19T15:04:34.887Z,8.90
2023-04-19T15:07:03.377Z,8.80
2023-04-19T15:09:30.289Z,8.60
2023-04-19T15:11:57.490Z,8.40
2023-04-19T15:14:24.622Z,8.40
2023-04-19T15:16:54.129Z,8.30
2023-04-19T15:19:21.658Z,8.20
2023-04-19T15:21:49.859Z,8.10
2023-04-19T15:24:16.756Z,8.00
2023-04-19T15:26:44.513Z,7.90
2023-04-19T15:29:11.647Z,7.90
2023-04-19T15:31:38.618Z,7.90
2023-04-19T15:34:05.654Z,7.90
2023-04-19T15:36:32.584Z,8.00
2023-04-19T15:39:00.726Z,8.10
2023-04-19T15:41:27.662Z,8.10
2023-04-19T15:43:54.713Z,8.20
2023-04-19T15:46:21.569Z,8.10
2023-04-19T15:48:48.666Z,8.10
2023-04-19T15:51:15.539Z,8.10
2023-04-19T15:53:42.510Z,8.00
2023-04-19T15:56:10.914Z,8.00
2023-04-19T15:58:37.863Z,8.10
2023-04-19T16:01:08.236Z,8.10
2023-04-19T16:03:35.280Z,8.10
2023-04-19T16:06:02.336Z,8.00
2023-04-19T16:08:29.672Z,8.00
2023-04-19T16:10:56.534Z,8.00
2023-04-19T16:13:24.788Z,8.00
2023-04-19T16:15:51.573Z,7.80
2023-04-19T16:18:18.320Z,7.80
2023-04-19T16:20:45.094Z,7.90
2023-04-19T16:23:11.921Z,7.90
2023-04-19T16:25:38.731Z,7.90
2023-04-19T16:28:05.532Z,7.90
2023-04-19T16:30:33.648Z,7.90
2023-04-19T16:33:00.436Z,7.90
2023-04-19T16:35:27.214Z,7.80
2023-04-19T16:37:56.648Z,7.60
2023-04-19T16:40:24.510Z,7.60
2023-04-19T16:42:51.329Z,7.50
2023-04-19T16:45:18.108Z,7.30
2023-04-19T16:47:46.523Z,7.20
2023-04-19T16:50:13.884Z,7.10
2023-04-19T16:52:40.968Z,7.10
2023-04-19T16:55:09.015Z,7.00
2023-04-19T16:57:36.266Z,7.00
2023-04-19T17:00:04.414Z,7.00
2023-04-19T17:02:31.351Z,7.00
2023-04-19T17:04:59.771Z,6.90
2023-04-19T17:07:26.737Z,6.90
2023-04-19T17:09:54.265Z,6.80
2023-04-19T17:12:21.015Z,6.70
2023-04-19T17:14:47.774Z,6.70
2023-04-19T17:17:14.532Z,6.70
2023-04-19T17:19:41.255Z,6.60
2023-04-19T17:22:09.359Z,6.60
2023-04-19T17:24:36.142Z,6.60
2023-04-19T17:27:03.070Z,6.60
2023-04-19T17:29:29.844Z,6.50
2023-04-19T17:31:56.662Z,6.50
2023-04-19T17:34:23.758Z,6.50
2023-04-19T17:36:50.502Z,6.40
2023-04-19T17:39:18.842Z,6.30
2023-04-19T17:41:45.750Z,6.30
2023-04-19T17:44:12.646Z,6.20
2023-04-19T17:46:39.795Z,6.20
2023-04-19T17:49:06.690Z,6.10
2023-04-19T17:51:34.160Z,6.00
2023-04-19T17:54:00.948Z,5.90
2023-04-19T17:56:29.031Z,5.90
2023-04-19T17:58:55.752Z,5.80
2023-04-19T18:01:22.865Z,5.80
2023-04-19T18:03:49.712Z,5.80
2023-04-19T18:06:16.550Z,5.70
2023-04-19T18:08:43.432Z,5.70
2023-04-19T18:11:10.796Z,5.70
2023-04-19T18:13:39.141Z,5.70
2023-04-19T18:16:06.214Z,5.80
2023-04-19T18:18:32.969Z,5.80
2023-04-19T18:21:03.689Z,5.80
2023-04-19T18:23:30.452Z,5.80
2023-04-19T18:26:00.960Z,5.80
2023-04-19T18:28:27.832Z,5.80
2023-04-19T18:30:56.151Z,5.80
2023-04-19T18:33:23.184Z,5.80
2023-04-19T18:35:49.941Z,5.70
2023-04-19T18:38:16.732Z,5.70
2023-04-19T18:40:43.472Z,5.60
2023-04-19T18:43:10.609Z,5.50
2023-04-19T18:45:37.509Z,5.50
2023-04-19T18:48:05.972Z,5.50
2023-04-19T18:50:34.070Z,5.40
2023-04-19T18:53:00.936Z,5.40
2023-04-19T18:55:27.662Z,5.40
2023-04-19T18:57:54.697Z,5.40
2023-04-19T19:00:21.595Z,5.40
2023-04-19T19:02:48.546Z,5.40
2023-04-19T19:05:16.958Z,5.40
2023-04-19T19:07:43.917Z,5.50
2023-04-19T19:10:19.391Z,5.40
2023-04-19T19:12:49.118Z,5.40
2023-04-19T19:15:16.481Z,5.50
2023-04-19T19:17:43.439Z,5.50
2023-04-19T19:20:11.009Z,5.50
2023-04-19T19:22:40.210Z,5.60
2023-04-19T19:25:07.522Z,5.60
2023-04-19T19:27:34.383Z,5.60
2023-04-19T19:30:01.809Z,5.60
2023-04-19T19:32:29.385Z,5.60
2023-04-19T19:35:02.250Z,5.70
2023-04-19T19:37:30.714Z,5.70
2023-04-19T19:40:03.828Z,5.70
2023-04-19T19:42:32.575Z,5.70
2023-04-19T19:44:59.337Z,5.70
2023-04-19T19:47:26.330Z,5.70
2023-04-19T19:50:17.191Z,5.70
2023-04-19T19:52:39.992Z,5.70
2023-04-19T19:55:09.090Z,5.70
2023-04-19T20:00:22.984Z,5.70
2023-04-19T20:02:56.324Z,5.70
2023-04-19T20:05:24.077Z,5.70
2023-04-19T20:10:22.327Z,5.70
2023-04-19T20:12:49.091Z,5.70
2023-04-19T20:15:15.844Z,5.70
2023-04-19T20:17:43.557Z,5.60
2023-04-19T20:20:11.337Z,5.60
2023-04-19T20:22:38.113Z,5.40
2023-04-19T20:25:05.792Z,5.30
2023-04-19T20:27:33.921Z,5.30
2023-04-19T20:30:00.654Z,5.20
2023-04-19T20:32:27.627Z,5.20
2023-04-19T20:34:54.387Z,5.10
2023-04-19T20:37:21.159Z,5.10
2023-04-19T20:39:48.071Z,5.10
2023-04-19T20:42:14.836Z,5.10
2023-04-19T20:44:42.942Z,5.10
2023-04-19T20:47:09.749Z,5.10
2023-04-19T20:49:36.478Z,5.10
2023-04-19T20:52:03.264Z,5.10
2023-04-19T20:54:29.988Z,5.10
2023-04-19T20:57:00.440Z,5.10
2023-04-19T20:59:27.227Z,5.10
2023-04-19T21:01:55.386Z,5.20
2023-04-19T21:04:22.291Z,5.20
2023-04-19T21:06:49.140Z,5.10
2023-04-19T21:09:16.095Z,5.10
2023-04-19T21:11:43.030Z,5.10
2023-04-19T21:14:09.782Z,5.10
2023-04-19T21:16:36.563Z,5.10
2023-04-19T21:19:04.703Z,5.10
2023-04-19T21:21:32.597Z,5.20
2023-04-19T21:23:59.470Z,5.20
2023-04-19T21:26:26.405Z,5.20
2023-04-19T21:28:53.180Z,5.20
2023-04-19T21:31:20.000Z,5.20
2023-04-19T21:33:46.872Z,5.20
2023-04-19T21:36:15.030Z,5.20
2023-04-19T21:38:41.787Z,5.20
2023-04-19T21:41:08.648Z,5.10
2023-04-19T21:43:35.475Z,5.20
2023-04-19T21:46:02.217Z,5.10
2023-04-19T21:48:29.251Z,5.10
2023-04-19T21:50:56.032Z,5.00
2023-04-19T21:53:24.205Z,5.00
2023-04-19T21:55:51.125Z,5.00
2023-04-19T21:58:18.438Z,5.00
2023-04-19T22:00:45.617Z,5.00
2023-04-19T22:03:12.711Z,5.00
2023-04-19T22:05:39.583Z,5.00
2023-04-19T22:08:06.355Z,5.00
2023-04-19T22:10:34.524Z,5.00
2023-04-19T22:13:03.205Z,5.00
2023-04-19T22:15:30.345Z,5.00
2023-04-19T22:17:57.637Z,4.90
2023-04-19T22:20:24.779Z,4.90
2023-04-19T22:22:51.802Z,4.90
2023-04-19T22:25:18.946Z,4.90
2023-04-19T22:27:47.180Z,4.80
2023-04-19T22:30:14.374Z,4.80
2023-04-19T22:32:41.183Z,4.80
2023-04-19T22:35:08.899Z,4.90
2023-04-19T22:37:35.677Z,4.90
2023-04-19T22:40:02.567Z,5.00
2023-04-19T22:42:29.320Z,5.00
2023-04-19T22:44:57.417Z,5.10
2023-04-19T22:47:24.345Z,5.20
2023-04-19T22:49:51.148Z,5.20
2023-04-19T22:52:18.113Z,5.20
2023-04-19T22:54:45.415Z,5.20
2023-04-19T22:57:12.292Z,5.20
2023-04-19T22:59:39.366Z,5.20
2023-04-19T23:02:07.772Z,5.20
2023-04-19T23:04:35.162Z,5.20
2023-04-19T23:07:02.627Z,5.20
2023-04-19T23:09:29.828Z,5.20
2023-04-19T23:11:56.740Z,5.20
2023-04-19T23:14:23.657Z,5.20
2023-04-19T23:16:50.656Z,5.20
2023-04-19T23:19:19.289Z,5.20
2023-04-19T23:21:46.294Z,5.30
2023-04-19T23:24:13.130Z,5.30
2023-04-19T23:26:39.956Z,5.40
2023-04-19T23:29:06.766Z,5.40
2023-04-19T23:31:33.765Z,5.50
2023-04-19T23:34:00.601Z,5.50
2023-04-19T23:36:28.898Z,5.50
2023-04-19T23:38:55.691Z,5.60
2023-04-19T23:41:22.566Z,5.70
2023-04-19T23:43:49.366Z,5.70
2023-04-19T23:46:16.278Z,5.80
2023-04-19T23:48:43.102Z,5.80
2023-04-19T23:51:09.993Z,5.80
2023-04-19T23:53:38.915Z,5.80
2023-04-19T23:56:06.569Z,5.80
2023-04-19T23:58:33.647Z,5.80
